sensor_id;sensor_type;location;lat;lon;timestamp;pressure;altitude;pressure_sealevel;temperature;humidity
46408;BME280;32110;45.724;21.276;2023-01-09T00:00:16;100385.75;;;5.20;nan
46408;BME280;32110;45.724;21.276;2023-01-09T00:02:42;100394.81;;;5.24;nan
46408;BME280;32110;45.724;21.276;2023-01-09T00:05:13;100407.72;;;5.32;nan
46408;BME280;32110;45.724;21.276;2023-01-09T00:07:40;100393.00;;;5.25;nan
46408;BME280;32110;45.724;21.276;2023-01-09T00:10:06;100397.28;;;5.32;nan
46408;BME280;32110;45.724;21.276;2023-01-09T00:12:32;100401.69;;;5.32;nan
46408;BME280;32110;45.724;21.276;2023-01-09T00:14:58;100389.22;;;5.27;nan
46408;BME280;32110;45.724;21.276;2023-01-09T00:17:23;100396.66;;;5.30;nan
46408;BME280;32110;45.724;21.276;2023-01-09T00:19:49;100373.69;;;5.19;nan
46408;BME280;32110;45.724;21.276;2023-01-09T00:22:14;100400.69;;;5.33;nan
46408;BME280;32110;45.724;21.276;2023-01-09T00:24:39;100397.03;;;5.27;nan
46408;BME280;32110;45.724;21.276;2023-01-09T00:27:05;100400.50;;;5.35;nan
46408;BME280;32110;45.724;21.276;2023-01-09T00:29:30;100391.25;;;5.32;nan
46408;BME280;32110;45.724;21.276;2023-01-09T00:31:56;100384.78;;;5.28;nan
46408;BME280;32110;45.724;21.276;2023-01-09T00:34:22;100388.06;;;5.37;nan
46408;BME280;32110;45.724;21.276;2023-01-09T00:36:47;100390.25;;;5.33;nan
46408;BME280;32110;45.724;21.276;2023-01-09T00:39:13;100378.56;;;5.29;nan
46408;BME280;32110;45.724;21.276;2023-01-09T00:41:41;100380.81;;;5.32;nan
46408;BME280;32110;45.724;21.276;2023-01-09T00:44:14;100363.84;;;5.21;nan
46408;BME280;32110;45.724;21.276;2023-01-09T00:46:44;100376.78;;;5.29;nan
46408;BME280;32110;45.724;21.276;2023-01-09T00:49:12;100364.09;;;5.26;nan
46408;BME280;32110;45.724;21.276;2023-01-09T00:51:40;100374.41;;;5.35;nan
46408;BME280;32110;45.724;21.276;2023-01-09T00:54:06;100377.00;;;5.35;nan
46408;BME280;32110;45.724;21.276;2023-01-09T00:56:34;100363.91;;;5.28;nan
46408;BME280;32110;45.724;21.276;2023-01-09T00:59:01;100314.88;;;4.95;nan
46408;BME280;32110;45.724;21.276;2023-01-09T01:01:26;100366.94;;;5.31;nan
46408;BME280;32110;45.724;21.276;2023-01-09T01:03:52;100338.53;;;5.15;nan
46408;BME280;32110;45.724;21.276;2023-01-09T01:06:17;100346.16;;;5.17;nan
46408;BME280;32110;45.724;21.276;2023-01-09T01:09:01;100359.88;;;5.25;nan
46408;BME280;32110;45.724;21.276;2023-01-09T01:11:26;100351.00;;;5.20;nan
46408;BME280;32110;45.724;21.276;2023-01-09T01:13:52;100353.28;;;5.29;nan
46408;BME280;32110;45.724;21.276;2023-01-09T01:16:18;100347.44;;;5.27;nan
46408;BME280;32110;45.724;21.276;2023-01-09T01:18:44;100339.59;;;5.27;nan
46408;BME280;32110;45.724;21.276;2023-01-09T01:21:11;100357.50;;;5.30;nan
46408;BME280;32110;45.724;21.276;2023-01-09T01:23:37;100357.09;;;5.33;nan
46408;BME280;32110;45.724;21.276;2023-01-09T01:26:12;100350.91;;;5.35;nan
46408;BME280;32110;45.724;21.276;2023-01-09T01:28:38;100332.56;;;5.28;nan
46408;BME280;32110;45.724;21.276;2023-01-09T01:31:04;100328.19;;;5.35;nan
46408;BME280;32110;45.724;21.276;2023-01-09T01:33:30;100340.50;;;5.41;nan
46408;BME280;32110;45.724;21.276;2023-01-09T01:36:09;100325.53;;;5.28;nan
46408;BME280;32110;45.724;21.276;2023-01-09T01:38:34;100340.28;;;5.43;nan
46408;BME280;32110;45.724;21.276;2023-01-09T01:41:01;100311.28;;;5.24;nan
46408;BME280;32110;45.724;21.276;2023-01-09T01:43:27;100337.69;;;5.43;nan
46408;BME280;32110;45.724;21.276;2023-01-09T01:46:11;100317.81;;;5.42;nan
46408;BME280;32110;45.724;21.276;2023-01-09T01:48:36;100309.97;;;5.42;nan
46408;BME280;32110;45.724;21.276;2023-01-09T01:51:04;100316.78;;;5.43;nan
46408;BME280;32110;45.724;21.276;2023-01-09T01:53:37;100308.56;;;5.39;nan
46408;BME280;32110;45.724;21.276;2023-01-09T01:56:25;100311.72;;;5.35;nan
46408;BME280;32110;45.724;21.276;2023-01-09T01:59:03;100294.59;;;5.25;nan
46408;BME280;32110;45.724;21.276;2023-01-09T02:01:30;100293.19;;;5.23;nan
46408;BME280;32110;45.724;21.276;2023-01-09T02:03:59;100295.63;;;5.24;nan
46408;BME280;32110;45.724;21.276;2023-01-09T02:06:26;100272.09;;;5.18;nan
46408;BME280;32110;45.724;21.276;2023-01-09T02:08:52;100276.91;;;5.21;nan
46408;BME280;32110;45.724;21.276;2023-01-09T02:11:19;100251.56;;;5.08;nan
46408;BME280;32110;45.724;21.276;2023-01-09T02:13:45;100260.22;;;5.15;nan
46408;BME280;32110;45.724;21.276;2023-01-09T02:16:37;100259.22;;;5.16;nan
46408;BME280;32110;45.724;21.276;2023-01-09T02:24:33;100253.59;;;5.19;nan
46408;BME280;32110;45.724;21.276;2023-01-09T02:34:55;100237.53;;;5.16;nan
46408;BME280;32110;45.724;21.276;2023-01-09T02:42:39;100214.84;;;5.16;nan
46408;BME280;32110;45.724;21.276;2023-01-09T02:45:06;100209.22;;;5.19;nan
46408;BME280;32110;45.724;21.276;2023-01-09T02:47:38;100217.06;;;5.19;nan
46408;BME280;32110;45.724;21.276;2023-01-09T02:50:08;100205.41;;;5.15;nan
46408;BME280;32110;45.724;21.276;2023-01-09T02:53:02;100200.38;;;5.14;nan
46408;BME280;32110;45.724;21.276;2023-01-09T03:03:51;100189.34;;;5.18;nan
46408;BME280;32110;45.724;21.276;2023-01-09T03:08:58;100189.34;;;5.18;nan
46408;BME280;32110;45.724;21.276;2023-01-09T03:11:27;100178.28;;;5.16;nan
46408;BME280;32110;45.724;21.276;2023-01-09T03:14:05;100172.69;;;5.13;nan
46408;BME280;32110;45.724;21.276;2023-01-09T03:16:35;100178.69;;;5.13;nan
46408;BME280;32110;45.724;21.276;2023-01-09T03:19:03;100169.41;;;5.04;nan
46408;BME280;32110;45.724;21.276;2023-01-09T03:21:31;100181.50;;;5.11;nan
46408;BME280;32110;45.724;21.276;2023-01-09T03:23:59;100178.69;;;5.13;nan
46408;BME280;32110;45.724;21.276;2023-01-09T03:26:25;100175.88;;;5.08;nan
46408;BME280;32110;45.724;21.276;2023-01-09T03:28:53;100171.81;;;4.99;nan
46408;BME280;32110;45.724;21.276;2023-01-09T03:31:18;100164.56;;;4.94;nan
46408;BME280;32110;45.724;21.276;2023-01-09T03:33:44;100185.88;;;5.04;nan
46408;BME280;32110;45.724;21.276;2023-01-09T03:36:10;100175.44;;;5.04;nan
46408;BME280;32110;45.724;21.276;2023-01-09T03:38:36;100170.19;;;4.98;nan
46408;BME280;32110;45.724;21.276;2023-01-09T03:41:02;100177.41;;;4.96;nan
46408;BME280;32110;45.724;21.276;2023-01-09T03:43:28;100142.81;;;4.80;nan
46408;BME280;32110;45.724;21.276;2023-01-09T03:45:53;100148.03;;;4.80;nan
46408;BME280;32110;45.724;21.276;2023-01-09T03:48:19;100144.19;;;4.76;nan
46408;BME280;32110;45.724;21.276;2023-01-09T03:50:47;100133.16;;;4.74;nan
46408;BME280;32110;45.724;21.276;2023-01-09T03:53:13;100147.63;;;4.77;nan
46408;BME280;32110;45.724;21.276;2023-01-09T03:55:45;100150.00;;;4.78;nan
46408;BME280;32110;45.724;21.276;2023-01-09T03:58:12;100142.59;;;4.75;nan
46408;BME280;32110;45.724;21.276;2023-01-09T04:00:37;100152.03;;;4.83;nan
46408;BME280;32110;45.724;21.276;2023-01-09T04:03:05;100144.03;;;4.84;nan
46408;BME280;32110;45.724;21.276;2023-01-09T04:05:30;100140.41;;;4.85;nan
46408;BME280;32110;45.724;21.276;2023-01-09T04:07:55;100080.88;;;4.54;nan
46408;BME280;32110;45.724;21.276;2023-01-09T04:10:21;100135.63;;;4.89;nan
46408;BME280;32110;45.724;21.276;2023-01-09T04:12:47;100120.97;;;4.88;nan
46408;BME280;32110;45.724;21.276;2023-01-09T04:15:12;100112.50;;;4.79;nan
46408;BME280;32110;45.724;21.276;2023-01-09T04:17:37;100109.69;;;4.74;nan
46408;BME280;32110;45.724;21.276;2023-01-09T04:20:03;100112.69;;;4.78;nan
46408;BME280;32110;45.724;21.276;2023-01-09T04:22:29;100106.81;;;4.69;nan
46408;BME280;32110;45.724;21.276;2023-01-09T04:24:55;100123.56;;;4.81;nan
46408;BME280;32110;45.724;21.276;2023-01-09T04:27:21;100116.09;;;4.78;nan
46408;BME280;32110;45.724;21.276;2023-01-09T04:29:46;100115.13;;;4.79;nan
46408;BME280;32110;45.724;21.276;2023-01-09T04:32:12;100118.53;;;4.80;nan
46408;BME280;32110;45.724;21.276;2023-01-09T04:34:37;100093.56;;;4.64;nan
46408;BME280;32110;45.724;21.276;2023-01-09T04:37:02;100120.13;;;4.74;nan
46408;BME280;32110;45.724;21.276;2023-01-09T04:39:28;100127.31;;;4.72;nan
46408;BME280;32110;45.724;21.276;2023-01-09T04:41:53;100108.63;;;4.68;nan
46408;BME280;32110;45.724;21.276;2023-01-09T04:44:21;100110.00;;;4.64;nan
46408;BME280;32110;45.724;21.276;2023-01-09T04:46:50;100107.63;;;4.63;nan
46408;BME280;32110;45.724;21.276;2023-01-09T04:49:15;100112.22;;;4.61;nan
46408;BME280;32110;45.724;21.276;2023-01-09T04:51:41;100111.19;;;4.62;nan
46408;BME280;32110;45.724;21.276;2023-01-09T04:54:06;100111.41;;;4.60;nan
46408;BME280;32110;45.724;21.276;2023-01-09T04:56:32;100107.75;;;4.55;nan
46408;BME280;32110;45.724;21.276;2023-01-09T04:58:57;100106.72;;;4.49;nan
46408;BME280;32110;45.724;21.276;2023-01-09T05:01:23;100110.97;;;4.57;nan
46408;BME280;32110;45.724;21.276;2023-01-09T05:03:48;100103.56;;;4.54;nan
46408;BME280;32110;45.724;21.276;2023-01-09T05:06:13;100052.00;;;4.14;nan
46408;BME280;32110;45.724;21.276;2023-01-09T05:08:39;100109.72;;;4.46;nan
46408;BME280;32110;45.724;21.276;2023-01-09T05:11:04;100107.41;;;4.30;nan
46408;BME280;32110;45.724;21.276;2023-01-09T05:13:30;100104.13;;;4.14;nan
46408;BME280;32110;45.724;21.276;2023-01-09T05:15:55;100094.63;;;4.07;nan
46408;BME280;32110;45.724;21.276;2023-01-09T05:18:21;100105.03;;;4.07;nan
46408;BME280;32110;45.724;21.276;2023-01-09T05:20:46;100080.50;;;3.94;nan
46408;BME280;32110;45.724;21.276;2023-01-09T05:23:11;100074.50;;;3.94;nan
46408;BME280;32110;45.724;21.276;2023-01-09T05:25:37;100093.75;;;3.99;nan
46408;BME280;32110;45.724;21.276;2023-01-09T05:28:02;100097.22;;;4.07;nan
46408;BME280;32110;45.724;21.276;2023-01-09T05:30:27;100099.03;;;4.06;nan
46408;BME280;32110;45.724;21.276;2023-01-09T05:32:53;100046.69;;;3.73;nan
46408;BME280;32110;45.724;21.276;2023-01-09T05:35:18;100116.31;;;4.14;nan
46408;BME280;32110;45.724;21.276;2023-01-09T05:37:45;100121.75;;;4.12;nan
46408;BME280;32110;45.724;21.276;2023-01-09T05:40:10;100110.25;;;4.07;nan
46408;BME280;32110;45.724;21.276;2023-01-09T05:42:36;100088.31;;;3.94;nan
46408;BME280;32110;45.724;21.276;2023-01-09T05:45:01;100090.94;;;3.94;nan
46408;BME280;32110;45.724;21.276;2023-01-09T05:47:29;100087.28;;;3.89;nan
46408;BME280;32110;45.724;21.276;2023-01-09T05:49:54;100096.03;;;3.81;nan
46408;BME280;32110;45.724;21.276;2023-01-09T05:52:23;100108.94;;;3.89;nan
46408;BME280;32110;45.724;21.276;2023-01-09T05:54:49;100099.22;;;3.76;nan
46408;BME280;32110;45.724;21.276;2023-01-09T05:57:14;100104.97;;;3.72;nan
46408;BME280;32110;45.724;21.276;2023-01-09T05:59:40;100099.72;;;3.65;nan
46408;BME280;32110;45.724;21.276;2023-01-09T06:02:05;100100.56;;;3.72;nan
46408;BME280;32110;45.724;21.276;2023-01-09T06:04:31;100091.75;;;3.73;nan
46408;BME280;32110;45.724;21.276;2023-01-09T06:06:56;100088.09;;;3.68;nan
46408;BME280;32110;45.724;21.276;2023-01-09T06:09:21;100065.00;;;3.58;nan
46408;BME280;32110;45.724;21.276;2023-01-09T06:11:47;100074.47;;;3.66;nan
46408;BME280;32110;45.724;21.276;2023-01-09T06:14:12;100074.72;;;3.71;nan
46408;BME280;32110;45.724;21.276;2023-01-09T06:16:38;100065.06;;;3.65;nan
46408;BME280;32110;45.724;21.276;2023-01-09T06:19:04;100070.75;;;3.75;nan
46408;BME280;32110;45.724;21.276;2023-01-09T06:21:30;100067.91;;;3.70;nan
46408;BME280;32110;45.724;21.276;2023-01-09T06:23:56;100049.84;;;3.68;nan
46408;BME280;32110;45.724;21.276;2023-01-09T06:26:22;100061.94;;;3.76;nan
46408;BME280;32110;45.724;21.276;2023-01-09T06:28:47;100051.72;;;3.74;nan
46408;BME280;32110;45.724;21.276;2023-01-09T06:31:12;100050.53;;;3.77;nan
46408;BME280;32110;45.724;21.276;2023-01-09T06:33:38;100062.19;;;3.81;nan
46408;BME280;32110;45.724;21.276;2023-01-09T06:36:04;100059.31;;;3.76;nan
46408;BME280;32110;45.724;21.276;2023-01-09T06:38:29;100051.91;;;3.73;nan
46408;BME280;32110;45.724;21.276;2023-01-09T06:40:55;100063.16;;;3.80;nan
46408;BME280;32110;45.724;21.276;2023-01-09T06:43:20;100041.41;;;3.66;nan
46408;BME280;32110;45.724;21.276;2023-01-09T06:45:45;100063.56;;;3.77;nan
46408;BME280;32110;45.724;21.276;2023-01-09T06:48:11;100062.69;;;3.70;nan
46408;BME280;32110;45.724;21.276;2023-01-09T06:50:37;100053.63;;;3.66;nan
46408;BME280;32110;45.724;21.276;2023-01-09T06:53:02;100054.88;;;3.70;nan
46408;BME280;32110;45.724;21.276;2023-01-09T06:55:27;100053.69;;;3.72;nan
46408;BME280;32110;45.724;21.276;2023-01-09T06:57:53;100032.00;;;3.65;nan
46408;BME280;32110;45.724;21.276;2023-01-09T07:00:21;100031.44;;;3.70;nan
46408;BME280;32110;45.724;21.276;2023-01-09T07:02:47;100029.25;;;3.73;nan
46408;BME280;32110;45.724;21.276;2023-01-09T07:05:12;100043.56;;;3.84;nan
46408;BME280;32110;45.724;21.276;2023-01-09T07:07:38;100050.81;;;3.89;nan
46408;BME280;32110;45.724;21.276;2023-01-09T07:10:04;100036.44;;;3.93;nan
46408;BME280;32110;45.724;21.276;2023-01-09T07:12:30;100032.03;;;3.93;nan
46408;BME280;32110;45.724;21.276;2023-01-09T07:14:55;100060.75;;;4.07;nan
46408;BME280;32110;45.724;21.276;2023-01-09T07:17:20;100034.47;;;4.01;nan
46408;BME280;32110;45.724;21.276;2023-01-09T07:19:46;100047.50;;;4.01;nan
46408;BME280;32110;45.724;21.276;2023-01-09T07:22:11;100021.16;;;3.90;nan
46408;BME280;32110;45.724;21.276;2023-01-09T07:24:37;100025.84;;;4.01;nan
46408;BME280;32110;45.724;21.276;2023-01-09T07:27:02;100004.16;;;3.94;nan
46408;BME280;32110;45.724;21.276;2023-01-09T07:29:28;100027.72;;;4.14;nan
46408;BME280;32110;45.724;21.276;2023-01-09T07:31:54;100006.25;;;4.05;nan
46408;BME280;32110;45.724;21.276;2023-01-09T07:34:19;99999.03;;;4.07;nan
46408;BME280;32110;45.724;21.276;2023-01-09T07:36:45;100000.47;;;4.16;nan
46408;BME280;32110;45.724;21.276;2023-01-09T07:39:14;99997.09;;;4.22;nan
46408;BME280;32110;45.724;21.276;2023-01-09T07:41:40;99972.63;;;4.17;nan
46408;BME280;32110;45.724;21.276;2023-01-09T07:44:05;99949.50;;;4.00;nan
46408;BME280;32110;45.724;21.276;2023-01-09T07:46:31;99995.97;;;4.32;nan
46408;BME280;32110;45.724;21.276;2023-01-09T07:48:57;99975.09;;;4.32;nan
46408;BME280;32110;45.724;21.276;2023-01-09T07:51:22;99966.84;;;4.28;nan
46408;BME280;32110;45.724;21.276;2023-01-09T07:53:48;99918.06;;;4.09;nan
46408;BME280;32110;45.724;21.276;2023-01-09T07:56:13;99983.00;;;4.52;nan
46408;BME280;32110;45.724;21.276;2023-01-09T08:01:05;99971.00;;;4.64;nan
46408;BME280;32110;45.724;21.276;2023-01-09T08:03:30;99981.69;;;4.82;nan
46408;BME280;32110;45.724;21.276;2023-01-09T08:05:57;99971.88;;;4.91;nan
46408;BME280;32110;45.724;21.276;2023-01-09T08:08:23;99987.16;;;5.01;nan
46408;BME280;32110;45.724;21.276;2023-01-09T08:10:48;99974.91;;;5.08;nan
46408;BME280;32110;45.724;21.276;2023-01-09T08:13:14;99983.16;;;5.18;nan
46408;BME280;32110;45.724;21.276;2023-01-09T08:15:39;99962.06;;;5.06;nan
46408;BME280;32110;45.724;21.276;2023-01-09T08:18:05;99970.50;;;5.15;nan
46408;BME280;32110;45.724;21.276;2023-01-09T08:20:30;99963.88;;;5.13;nan
46408;BME280;32110;45.724;21.276;2023-01-09T08:22:56;99966.88;;;5.23;nan
46408;BME280;32110;45.724;21.276;2023-01-09T08:25:21;99959.06;;;5.23;nan
46408;BME280;32110;45.724;21.276;2023-01-09T08:27:46;99965.69;;;5.25;nan
46408;BME280;32110;45.724;21.276;2023-01-09T08:30:12;99971.72;;;5.32;nan
46408;BME280;32110;45.724;21.276;2023-01-09T08:32:38;99981.56;;;5.37;nan
46408;BME280;32110;45.724;21.276;2023-01-09T08:35:04;99963.28;;;5.30;nan
46408;BME280;32110;45.724;21.276;2023-01-09T08:37:29;99972.09;;;5.36;nan
46408;BME280;32110;45.724;21.276;2023-01-09T08:39:55;99977.94;;;5.45;nan
46408;BME280;32110;45.724;21.276;2023-01-09T08:42:20;99976.72;;;5.47;nan
46408;BME280;32110;45.724;21.276;2023-01-09T08:45:05;99961.47;;;5.38;nan
46408;BME280;32110;45.724;21.276;2023-01-09T08:47:49;99969.31;;;5.51;nan
46408;BME280;32110;45.724;21.276;2023-01-09T08:50:15;99970.50;;;5.48;nan
46408;BME280;32110;45.724;21.276;2023-01-09T08:52:40;99980.75;;;5.57;nan
46408;BME280;32110;45.724;21.276;2023-01-09T08:55:06;99980.13;;;5.61;nan
46408;BME280;32110;45.724;21.276;2023-01-09T08:57:31;99970.69;;;5.60;nan
46408;BME280;32110;45.724;21.276;2023-01-09T08:59:57;99977.53;;;5.61;nan
46408;BME280;32110;45.724;21.276;2023-01-09T09:02:22;99965.06;;;5.63;nan
46408;BME280;32110;45.724;21.276;2023-01-09T09:04:48;99948.59;;;5.63;nan
46408;BME280;32110;45.724;21.276;2023-01-09T09:07:17;99963.03;;;5.79;nan
46408;BME280;32110;45.724;21.276;2023-01-09T09:09:45;99948.97;;;5.66;nan
46408;BME280;32110;45.724;21.276;2023-01-09T09:12:10;99957.81;;;5.72;nan
46408;BME280;32110;45.724;21.276;2023-01-09T09:14:36;99967.44;;;5.85;nan
46408;BME280;32110;45.724;21.276;2023-01-09T09:17:20;99961.19;;;5.86;nan
46408;BME280;32110;45.724;21.276;2023-01-09T09:19:45;99944.53;;;5.87;nan
46408;BME280;32110;45.724;21.276;2023-01-09T09:22:10;99948.16;;;5.99;nan
46408;BME280;32110;45.724;21.276;2023-01-09T09:24:36;99952.94;;;6.02;nan
46408;BME280;32110;45.724;21.276;2023-01-09T09:27:01;99933.44;;;6.05;nan
46408;BME280;32110;45.724;21.276;2023-01-09T09:29:27;99941.63;;;6.15;nan
46408;BME280;32110;45.724;21.276;2023-01-09T09:31:53;99935.81;;;6.13;nan
46408;BME280;32110;45.724;21.276;2023-01-09T09:34:19;99922.53;;;6.14;nan
46408;BME280;32110;45.724;21.276;2023-01-09T09:36:44;99937.94;;;6.36;nan
46408;BME280;32110;45.724;21.276;2023-01-09T09:39:09;99941.53;;;6.42;nan
46408;BME280;32110;45.724;21.276;2023-01-09T09:45:09;99935.81;;;6.58;nan
46408;BME280;32110;45.724;21.276;2023-01-09T09:48:26;99933.19;;;6.58;nan
46408;BME280;32110;45.724;21.276;2023-01-09T09:53:39;99943.75;;;6.76;nan
46408;BME280;32110;45.724;21.276;2023-01-09T09:56:13;99939.72;;;6.80;nan
46408;BME280;32110;45.724;21.276;2023-01-09T09:58:41;99931.25;;;6.85;nan
46408;BME280;32110;45.724;21.276;2023-01-09T10:01:13;99915.72;;;6.84;nan
46408;BME280;32110;45.724;21.276;2023-01-09T10:06:30;99906.84;;;6.85;nan
46408;BME280;32110;45.724;21.276;2023-01-09T10:14:14;99895.50;;;6.97;nan
46408;BME280;32110;45.724;21.276;2023-01-09T10:25:05;99905.16;;;7.22;nan
46408;BME280;32110;45.724;21.276;2023-01-09T10:38:50;99893.03;;;7.71;nan
46408;BME280;32110;45.724;21.276;2023-01-09T10:44:26;99875.16;;;7.98;nan
46408;BME280;32110;45.724;21.276;2023-01-09T10:46:58;99856.72;;;8.05;nan
46408;BME280;32110;45.724;21.276;2023-01-09T10:49:25;99879.84;;;8.26;nan
46408;BME280;32110;45.724;21.276;2023-01-09T10:51:52;99876.13;;;8.34;nan
46408;BME280;32110;45.724;21.276;2023-01-09T10:54:21;99867.16;;;8.42;nan
46408;BME280;32110;45.724;21.276;2023-01-09T10:57:01;99858.97;;;8.50;nan
46408;BME280;32110;45.724;21.276;2023-01-09T10:59:30;99856.13;;;8.51;nan
46408;BME280;32110;45.724;21.276;2023-01-09T11:01:55;99836.16;;;8.50;nan
46408;BME280;32110;45.724;21.276;2023-01-09T11:04:38;99849.72;;;8.59;nan
46408;BME280;32110;45.724;21.276;2023-01-09T11:07:10;99852.72;;;8.63;nan
46408;BME280;32110;45.724;21.276;2023-01-09T11:12:26;99836.63;;;8.59;nan
46408;BME280;32110;45.724;21.276;2023-01-09T11:14:52;99842.00;;;8.64;nan
46408;BME280;32110;45.724;21.276;2023-01-09T11:17:24;99838.13;;;8.67;nan
46408;BME280;32110;45.724;21.276;2023-01-09T11:20:05;99764.53;;;8.20;nan
46408;BME280;32110;45.724;21.276;2023-01-09T11:22:43;99831.72;;;8.63;nan
46408;BME280;32110;45.724;21.276;2023-01-09T11:25:14;99818.50;;;8.58;nan
46408;BME280;32110;45.724;21.276;2023-01-09T11:27:39;99793.03;;;8.46;nan
46408;BME280;32110;45.724;21.276;2023-01-09T11:32:33;99803.06;;;8.49;nan
46408;BME280;32110;45.724;21.276;2023-01-09T11:34:59;99813.25;;;8.58;nan
46408;BME280;32110;45.724;21.276;2023-01-09T11:37:27;99804.00;;;8.55;nan
46408;BME280;32110;45.724;21.276;2023-01-09T11:39:55;99802.75;;;8.58;nan
46408;BME280;32110;45.724;21.276;2023-01-09T11:42:26;99772.34;;;8.38;nan
46408;BME280;32110;45.724;21.276;2023-01-09T11:47:39;99782.88;;;8.50;nan
46408;BME280;32110;45.724;21.276;2023-01-09T11:53:18;99773.75;;;8.41;nan
46408;BME280;32110;45.724;21.276;2023-01-09T11:55:45;99771.44;;;8.44;nan
46408;BME280;32110;45.724;21.276;2023-01-09T11:58:13;99757.84;;;8.36;nan
46408;BME280;32110;45.724;21.276;2023-01-09T12:06:14;99753.72;;;8.28;nan
46408;BME280;32110;45.724;21.276;2023-01-09T12:08:54;99740.94;;;8.20;nan
46408;BME280;32110;45.724;21.276;2023-01-09T12:11:33;99742.09;;;8.24;nan
46408;BME280;32110;45.724;21.276;2023-01-09T12:16:42;99742.19;;;8.17;nan
46408;BME280;32110;45.724;21.276;2023-01-09T12:22:32;99731.31;;;8.14;nan
46408;BME280;32110;45.724;21.276;2023-01-09T12:28:05;99729.28;;;8.16;nan
46408;BME280;32110;45.724;21.276;2023-01-09T12:35:44;99714.91;;;8.18;nan
46408;BME280;32110;45.724;21.276;2023-01-09T12:44:08;99688.25;;;8.21;nan
46408;BME280;32110;45.724;21.276;2023-01-09T12:47:08;99677.78;;;8.21;nan
46408;BME280;32110;45.724;21.276;2023-01-09T12:52:13;99665.44;;;8.22;nan
46408;BME280;32110;45.724;21.276;2023-01-09T12:55:00;99637.84;;;8.07;nan
46408;BME280;32110;45.724;21.276;2023-01-09T12:57:34;99645.25;;;8.10;nan
46408;BME280;32110;45.724;21.276;2023-01-09T13:00:14;99668.97;;;8.27;nan
46408;BME280;32110;45.724;21.276;2023-01-09T13:05:14;99668.50;;;8.30;nan
46408;BME280;32110;45.724;21.276;2023-01-09T13:07:44;99655.53;;;8.24;nan
46408;BME280;32110;45.724;21.276;2023-01-09T13:10:22;99651.41;;;8.28;nan
46408;BME280;32110;45.724;21.276;2023-01-09T13:12:53;99648.91;;;8.33;nan
46408;BME280;32110;45.724;21.276;2023-01-09T13:15:28;99653.94;;;8.35;nan
46408;BME280;32110;45.724;21.276;2023-01-09T13:20:51;99656.81;;;8.45;nan
46408;BME280;32110;45.724;21.276;2023-01-09T13:25:53;99656.00;;;8.56;nan
46408;BME280;32110;45.724;21.276;2023-01-09T13:28:34;99652.91;;;8.59;nan
46408;BME280;32110;45.724;21.276;2023-01-09T13:34:31;99639.69;;;8.54;nan
46408;BME280;32110;45.724;21.276;2023-01-09T13:36:58;99637.06;;;8.54;nan
46408;BME280;32110;45.724;21.276;2023-01-09T13:39:29;99640.38;;;8.61;nan
46408;BME280;32110;45.724;21.276;2023-01-09T13:42:01;99650.06;;;8.61;nan
46408;BME280;32110;45.724;21.276;2023-01-09T13:44:47;99650.75;;;8.56;nan
46408;BME280;32110;45.724;21.276;2023-01-09T13:47:17;99656.56;;;8.58;nan
46408;BME280;32110;45.724;21.276;2023-01-09T13:52:28;99653.59;;;8.55;nan
46408;BME280;32110;45.724;21.276;2023-01-09T13:59:52;99637.44;;;8.46;nan
46408;BME280;32110;45.724;21.276;2023-01-09T14:05:13;99646.31;;;8.45;nan
46408;BME280;32110;45.724;21.276;2023-01-09T14:07:41;99638.69;;;8.43;nan
46408;BME280;32110;45.724;21.276;2023-01-09T14:12:45;99637.88;;;8.43;nan
46408;BME280;32110;45.724;21.276;2023-01-09T14:15:24;99624.28;;;8.34;nan
46408;BME280;32110;45.724;21.276;2023-01-09T14:18:03;99637.31;;;8.41;nan
46408;BME280;32110;45.724;21.276;2023-01-09T14:20:37;99634.69;;;8.41;nan
46408;BME280;32110;45.724;21.276;2023-01-09T14:23:03;99622.13;;;8.31;nan
46408;BME280;32110;45.724;21.276;2023-01-09T14:25:30;99634.88;;;8.39;nan
46408;BME280;32110;45.724;21.276;2023-01-09T14:44:24;99618.94;;;8.29;nan
46408;BME280;32110;45.724;21.276;2023-01-09T14:46:52;99604.88;;;8.23;nan
46408;BME280;32110;45.724;21.276;2023-01-09T14:49:36;99603.88;;;8.24;nan
46408;BME280;32110;45.724;21.276;2023-01-09T14:52:11;99591.66;;;8.18;nan
46408;BME280;32110;45.724;21.276;2023-01-09T14:54:40;99607.50;;;8.23;nan
46408;BME280;32110;45.724;21.276;2023-01-09T14:57:23;99607.88;;;8.27;nan
46408;BME280;32110;45.724;21.276;2023-01-09T15:02:21;99567.63;;;8.09;nan
46408;BME280;32110;45.724;21.276;2023-01-09T15:04:47;99571.25;;;8.32;nan
46408;BME280;32110;45.724;21.276;2023-01-09T15:07:19;99582.63;;;8.61;nan
46408;BME280;32110;45.724;21.276;2023-01-09T15:09:46;99564.06;;;8.39;nan
46408;BME280;32110;45.724;21.276;2023-01-09T15:12:17;99579.00;;;8.27;nan
46408;BME280;32110;45.724;21.276;2023-01-09T15:14:45;99568.84;;;8.19;nan
46408;BME280;32110;45.724;21.276;2023-01-09T15:17:20;99567.84;;;8.20;nan
46408;BME280;32110;45.724;21.276;2023-01-09T15:19:47;99545.50;;;7.94;nan
46408;BME280;32110;45.724;21.276;2023-01-09T15:24:46;99553.00;;;8.02;nan
46408;BME280;32110;45.724;21.276;2023-01-09T15:27:14;99572.88;;;8.09;nan
46408;BME280;32110;45.724;21.276;2023-01-09T15:29:40;99550.53;;;7.95;nan
46408;BME280;32110;45.724;21.276;2023-01-09T15:32:10;99574.22;;;8.12;nan
46408;BME280;32110;45.724;21.276;2023-01-09T15:34:43;99560.19;;;8.06;nan
46408;BME280;32110;45.724;21.276;2023-01-09T15:37:28;99565.69;;;8.05;nan
46408;BME280;32110;45.724;21.276;2023-01-09T15:39:56;99559.50;;;7.99;nan
46408;BME280;32110;45.724;21.276;2023-01-09T15:42:27;99556.00;;;8.05;nan
46408;BME280;32110;45.724;21.276;2023-01-09T15:45:33;99546.50;;;8.04;nan
46408;BME280;32110;45.724;21.276;2023-01-09T15:50:48;99557.81;;;8.05;nan
46408;BME280;32110;45.724;21.276;2023-01-09T15:53:16;99537.28;;;7.90;nan
46408;BME280;32110;45.724;21.276;2023-01-09T15:55:43;99554.94;;;8.06;nan
46408;BME280;32110;45.724;21.276;2023-01-09T15:58:46;99555.41;;;8.03;nan